Tecolote Canyon (492, 23013) Station Data

Red Flag Warning: No
Fire Weather Zone: 243
SDGE Region: Beach Cities
Lat/Lon: 32.791/-117.184

Observations

Time Wind Speed/Gust Temp(F) RH Fuel Moist Fuel Temp(F) Dewpt(F) Tmax(F) Tmin(F) Accum Precip 10-min Precip SL Press(mb)
6/27 5:00pm 245 6 G 11 73° 67% - - 61° 77.2° 60.9° - - -
6/27 4:50pm 231 6 G 11 74° 64% - - 61° 77.2° 60.9° - - -
6/27 4:40pm 251 5 G 10 73° 66% - - 61° 77.2° 60.9° - - -
6/27 4:30pm 243 6 G 12 73° 68% - - 62° 77.2° 60.9° - - -
6/27 4:20pm 245 6 G 12 73° 67% - - 62° 77.2° 60.9° - - -
6/27 4:10pm 256 5 G 10 73° 67% - - 61° 77.2° 60.9° - - -
6/27 4:00pm 253 5 G 11 73° 65% - - 61° 77.2° 60.9° - - -
6/27 3:50pm 246 4 G 9 74° 63% - - 60° 77.2° 60.9° - - -
6/27 3:40pm 248 5 G 10 74° 61% - - 60° 77.2° 60.9° - - -
6/27 3:30pm 240 4 G 8 74° 60% - - 59° 77.2° 60.9° - - -
6/27 3:20pm 246 4 G 9 74° 62% - - 60° 77.2° 60.9° - - -
6/27 3:10pm 238 6 G 11 73° 65% - - 61° 77.2° 60.9° - - -
6/27 3:00pm 240 5 G 12 74° 65% - - 61° 77.2° 60.9° - - -
6/27 2:50pm 266 5 G 12 74° 65% - - 62° 77.2° 60.9° - - -
6/27 2:40pm 259 4 G 10 74° 65% - - 62° 77.2° 60.9° - - -
6/27 2:30pm 237 7 G 13 74° 66% - - 62° 77.2° 60.9° - - -
6/27 2:20pm 243 8 G 16 73° 67% - - 62° 77.2° 60.9° - - -
6/27 2:10pm 251 5 G 12 73° 69% - - 63° 77.2° 60.9° - - -
6/27 2:00pm 254 6 G 11 73° 67% - - 61° 77.2° 60.9° - - -
6/27 1:50pm 244 6 G 12 75° 63% - - 61° 77.2° 60.9° - - -
6/27 1:40pm 235 5 G 11 75° 64% - - 62° 77.2° 60.9° - - -
6/27 1:30pm 239 6 G 13 75° 65% - - 62° 77.2° 60.9° - - -
6/27 1:20pm 239 6 G 14 75° 67% - - 63° 77.2° 60.9° - - -
6/27 1:10pm 248 6 G 12 75° 65% - - 62° 77.2° 60.9° - - -
6/27 1:00pm 244 5 G 14 74° 66% - - 62° 77.2° 60.9° - - -
6/27 12:50pm 253 5 G 12 75° 63% - - 62° 77.2° 60.9° - - -
6/27 12:40pm 234 6 G 13 75° 65% - - 62° 77° 60.9° - - -
6/27 12:30pm 223 7 G 13 74° 68% - - 63° 76.4° 60.9° - - -
6/27 12:20pm 231 6 G 11 75° 66% - - 63° 76.4° 60.9° - - -
6/27 12:10pm 233 6 G 12 74° 67% - - 63° 76.4° 60.9° - - -
6/27 12:00pm 237 5 G 10 74° 68% - - 63° 76.1° 60.9° - - -
6/27 11:50am 237 4 G 9 74° 68% - - 63° 76.1° 60.9° - - -
6/27 11:40am 249 4 G 8 74° 67% - - 63° 76.1° 60.9° - - -
6/27 11:30am 249 5 G 10 75° 66% - - 63° 76.1° 60.9° - - -
6/27 11:20am 245 4 G 10 75° 64% - - 62° 76.1° 60.9° - - -
6/27 11:10am 239 5 G 10 74° 66% - - 62° 76.1° 60.9° - - -
6/27 11:00am 239 4 G 9 74° 66% - - 62° 76.1° 60.9° - - -
6/27 10:50am 249 5 G 9 73° 66% - - 61° 76.1° 60.9° - - -
6/27 10:40am 234 4 G 9 75° 64% - - 62° 76.1° 60.9° - - -
6/27 10:30am 232 4 G 8 74° 66% - - 62° 75.3° 60.9° - - -
6/27 10:20am 245 3 G 6 74° 67% - - 62° 75.2° 60.9° - - -
6/27 10:10am 248 3 G 7 74° 68% - - 63° 75° 60.9° - - -
6/27 10:00am 232 4 G 7 74° 69% - - 63° 74.6° 60.9° - - -
6/27 9:50am 232 3 G 7 73° 71% - - 63° 74° 60.9° - - -
6/27 9:40am 232 4 G 8 73° 72% - - 63° 74° 60.9° - - -
6/27 9:30am 231 4 G 7 73° 71% - - 63° 74° 60.9° - - -
6/27 9:20am 227 4 G 8 73° 71% - - 63° 74° 60.9° - - -
6/27 9:10am 237 3 G 5 73° 72% - - 64° 74° 60.9° - - -
6/27 8:50am 262 2 G 4 72° 75% - - 64° 73.2° 60.9° - - -
6/27 8:40am 248 2 G 5 72° 75% - - 64° 73.2° 60.9° - - -
6/27 8:30am 239 2 G 4 72° 72% - - 63° 73.2° 60.9° - - -
6/27 8:20am 239 1 G 3 72° 71% - - 62° 73.2° 60.9° - - -
6/27 8:10am 255 1 G 2 72° 72% - - 63° 73.2° 60.9° - - -
6/27 8:00am 21 0 G 2 71° 74% - - 63° 72.4° 60.9° - - -
6/27 7:50am 12 1 G 2 70° 76% - - 62° 70.8° 60.9° - - -
6/27 7:40am 347 1 G 3 68° 77% - - 61° 70.5° 60.9° - - -
6/27 7:30am 360 1 G 2 68° 79% - - 61° 70.5° 60.9° - - -
6/27 7:20am 346 2 G 2 67° 82% - - 61° 70.5° 60.9° - - -
6/27 7:10am 347 2 G 2 66° 85% - - 61° 70.5° 60.9° - - -
6/27 7:00am 342 1 G 2 65° 86% - - 61° 70.5° 60.9° - - -
6/27 6:50am 43 1 G 1 65° 88% - - 61° 70.5° 60.9° - - -
6/27 6:40am 5 2 G 4 63° 90% - - 60° 70.5° 60.9° - - -
6/27 6:30am 15 1 G 2 63° 92% - - 61° 70.5° 60.9° - - -
6/27 6:20am 23 1 G 2 62° 92% - - 60° 70.5° 60.9° - - -
6/27 6:10am 10 1 G 2 62° 93% - - 60° 70.5° 60.9° - - -
6/27 6:00am 38 1 G 2 62° 93% - - 60° 70.5° 61.1° - - -
6/27 5:50am 352 1 G 3 62° 93% - - 60° 70.5° 61.1° - - -
6/27 5:40am 85 0 G 1 63° 93% - - 60° 70.5° 61.2° - - -
6/27 5:30am 12 0 G 1 62° 92% - - 60° 70.5° 61.2° - - -
6/27 5:20am 144 2 G 5 63° 92% - - 60° 70.5° 61.3° - - -
6/27 5:10am 92 1 G 2 62° 92% - - 60° 70.5° 61.3° - - -
6/27 5:00am 33 1 G 2 62° 91% - - 60° 70.5° 61.3° - - -
6/27 4:50am 43 0 G 1 63° 92% - - 60° 70.5° 62° - - -
6/27 4:40am 4 1 G 2 63° 91% - - 60° 70.5° 62° - - -
6/27 4:30am 119 1 G 3 64° 91% - - 61° 70.5° 63° - - -
6/27 4:20am 165 1 G 2 64° 90% - - 61° 70.5° 63.2° - - -
6/27 4:10am 171 3 G 3 64° 88% - - 60° 70.5° 63.2° - - -
6/27 4:00am 192 3 G 4 64° 86% - - 60° 70.5° 63.2° - - -
6/27 3:50am 224 0 G 0 64° 86% - - 60° 70.5° 63.2° - - -
6/27 3:40am 200 0 G 1 64° 86% - - 60° 70.5° 63.2° - - -
6/27 3:30am 39 1 G 2 64° 86% - - 60° 70.5° 63.2° - - -
6/27 3:20am 33 2 G 2 64° 89% - - 61° 70.5° 63.2° - - -
6/27 3:10am 1 1 G 2 64° 91% - - 61° 70.5° 63.2° - - -
6/27 3:00am 1 0 G 1 64° 92% - - 61° 70.5° 63.4° - - -
6/27 2:50am 6 1 G 2 64° 92% - - 62° 70.5° 63.6° - - -
6/27 2:40am 9 1 G 2 64° 92% - - 62° 70.5° 63.8° - - -
6/27 2:30am 335 1 G 2 65° 92% - - 62° 70.5° 63.9° - - -
6/27 2:20am 343 0 G 1 65° 92% - - 62° 70.5° 64.3° - - -
6/27 2:10am 310 1 G 1 65° 92% - - 62° 70.5° 64.5° - - -
6/27 2:00am 302 0 G 1 65° 91% - - 62° 70.5° 64.5° - - -
6/27 1:50am 215 0 G 2 65° 91% - - 63° 70.5° 64.7° - - -
6/27 1:40am 210 2 G 3 65° 91% - - 62° 70.5° 64.9° - - -
6/27 1:30am 225 2 G 3 66° 90% - - 62° 70.5° 65° - - -
6/27 1:20am 184 2 G 3 66° 88% - - 62° 70.5° 65.2° - - -
6/27 1:10am 185 3 G 3 66° 87% - - 62° 70.5° 65.6° - - -
6/27 1:00am 176 3 G 4 67° 84% - - 62° 70.5° 66.2° - - -
6/27 12:50am 191 2 G 3 68° 83% - - 62° 70.5° 66.8° - - -
6/27 12:40am 221 1 G 2 68° 76% - - 60° 70.5° 67.5° - - -
6/27 12:30am 300 1 G 3 69° 70% - - 59° 70.5° 68.6° - - -
6/27 12:20am 314 2 G 4 70° 69% - - 59° 70.5° 68.9° - - -
6/27 12:10am 323 2 G 3 70° 68% - - 59° 70.5° 69.3° - - -
6/27 12:00am 2 1 G 1 70° 70% - - 60° 81° 61.8° - - -
6/26 11:50pm 324 2 G 3 69° 74% - - 61° 81° 61.8° - - -
6/26 11:40pm 330 1 G 2 69° 77% - - 62° 81° 61.8° - - -
6/26 11:30pm 320 1 G 2 69° 77% - - 62° 81° 61.8° - - -
6/26 11:20pm 328 0 G 2 69° 78% - - 62° 81° 61.8° - - -
6/26 11:10pm 21 0 G 1 69° 77% - - 62° 81° 61.8° - - -
6/26 11:00pm 73 0 G 1 69° 78% - - 62° 81° 61.8° - - -
6/26 10:50pm 64 1 G 2 70° 78% - - 63° 81° 61.8° - - -
6/26 10:40pm 17 2 G 3 68° 86% - - 64° 81° 61.8° - - -
6/26 10:30pm 13 1 G 2 68° 88% - - 64° 81° 61.8° - - -
6/26 10:20pm 32 0 G 1 67° 89% - - 64° 81° 61.8° - - -
6/26 10:10pm 13 1 G 2 67° 89% - - 64° 81° 61.8° - - -
6/26 10:00pm 354 1 G 2 68° 89% - - 64° 81° 61.8° - - -
6/26 9:50pm 138 1 G 3 68° 89% - - 64° 81° 61.8° - - -
6/26 9:40pm 182 2 G 3 68° 89% - - 64° 81° 61.8° - - -
6/26 9:30pm 187 0 G 1 68° 89% - - 64° 81° 61.8° - - -
6/26 9:20pm 190 1 G 2 68° 88% - - 64° 81° 61.8° - - -
6/26 9:10pm 238 1 G 3 68° 88% - - 64° 81° 61.8° - - -
6/26 9:00pm 271 1 G 3 68° 88% - - 64° 81° 61.8° - - -
6/26 8:50pm 256 1 G 3 68° 87% - - 64° 81° 61.8° - - -
6/26 8:40pm 254 1 G 3 68° 87% - - 64° 81° 61.8° - - -
6/26 8:30pm 273 1 G 3 69° 86% - - 64° 81° 61.8° - - -
6/26 8:20pm 262 1 G 2 69° 85% - - 64° 81° 61.8° - - -
6/26 8:10pm 234 2 G 4 69° 84% - - 64° 81° 61.8° - - -
6/26 8:00pm 220 3 G 4 70° 81% - - 64° 81° 61.8° - - -
6/26 7:50pm 218 2 G 3 71° 77% - - 64° 81° 61.8° - - -
6/26 7:40pm 219 2 G 4 72° 75% - - 64° 81° 61.8° - - -
6/26 7:30pm 214 3 G 5 73° 75% - - 64° 81° 61.8° - - -
6/26 7:20pm 216 3 G 5 73° 72% - - 64° 81° 61.8° - - -
6/26 7:10pm 211 4 G 5 73° 71% - - 63° 81° 61.8° - - -
6/26 7:00pm 222 4 G 7 74° 69% - - 64° 81° 61.8° - - -
6/26 6:50pm 221 4 G 6 75° 69% - - 64° 81° 61.8° - - -
6/26 6:40pm 235 3 G 5 75° 66% - - 63° 81° 61.8° - - -
6/26 6:30pm 243 2 G 5 76° 64% - - 63° 81° 61.8° - - -
6/26 6:20pm 228 3 G 7 76° 62% - - 62° 81° 61.8° - - -
6/26 6:10pm 254 2 G 5 77° 60% - - 62° 81° 61.8° - - -
6/26 6:00pm 254 3 G 7 77° 59% - - 62° 81° 61.8° - - -
6/26 5:50pm 252 3 G 7 77° 58% - - 61° 81° 61.8° - - -
6/26 5:40pm 241 4 G 8 77° 57% - - 61° 81° 61.8° - - -
6/26 5:30pm 240 4 G 7 78° 56% - - 61° 81° 61.8° - - -
6/26 5:20pm 257 3 G 7 80° 52% - - 61° 81° 61.8° - - -
6/26 5:10pm 246 4 G 8 80° 53% - - 61° 81° 61.8° - - -
6/26 5:00pm 251 3 G 6 80° 52% - - 61° 81° 61.8° - - -
6/26 4:50pm 245 4 G 9 79° 55% - - 61° 80.5° 61.8° - - -
6/26 4:40pm 237 4 G 9 78° 57% - - 62° 80.5° 61.8° - - -
6/26 4:30pm 244 4 G 9 79° 57% - - 63° 80.5° 61.8° - - -
6/26 4:20pm 230 4 G 8 78° 60% - - 63° 79.4° 61.8° - - -
6/26 4:10pm 228 5 G 9 78° 61% - - 64° 79.4° 61.8° - - -
6/26 4:00pm 229 4 G 8 78° 62% - - 64° 79.4° 61.8° - - -
6/26 3:50pm 228 5 G 10 78° 62% - - 64° 79.4° 61.8° - - -
6/26 3:40pm 237 4 G 9 77° 64% - - 64° 78.9° 61.8° - - -
6/26 3:30pm 235 5 G 9 77° 63% - - 64° 78.9° 61.8° - - -
6/26 3:20pm 224 5 G 9 77° 62% - - 63° 78.9° 61.8° - - -
6/26 3:10pm 257 3 G 5 77° 62% - - 63° 78.6° 61.8° - - -
6/26 3:00pm 258 4 G 8 77° 63% - - 63° 78.6° 61.8° - - -
6/26 2:50pm 245 4 G 8 77° 62% - - 63° 78.6° 61.8° - - -
6/26 2:40pm 243 4 G 9 77° 61% - - 62° 78.6° 61.8° - - -
6/26 2:30pm 241 4 G 9 76° 63% - - 63° 78.6° 61.8° - - -
6/26 2:20pm 249 4 G 9 76° 64% - - 63° 78.6° 61.8° - - -
6/26 2:10pm 259 5 G 10 77° 63% - - 63° 78.6° 61.8° - - -
6/26 2:00pm 263 4 G 9 77° 62% - - 63° 78.6° 61.8° - - -
6/26 1:50pm 267 4 G 8 77° 61% - - 63° 78.6° 61.8° - - -
6/26 1:40pm 256 3 G 8 77° 62% - - 63° 78.3° 61.8° - - -
6/26 1:30pm 245 4 G 8 76° 63% - - 63° 78.2° 61.8° - - -
6/26 1:20pm 258 3 G 9 77° 63% - - 63° 78.2° 61.8° - - -
6/26 1:10pm 239 4 G 7 77° 63% - - 63° 78.2° 61.8° - - -
6/26 1:00pm 248 4 G 8 76° 65% - - 63° 77.7° 61.8° - - -
6/26 12:50pm 237 5 G 9 75° 66% - - 63° 77.7° 61.8° - - -
6/26 12:40pm 235 5 G 10 76° 64% - - 63° 77.7° 61.8° - - -
6/26 12:30pm 243 4 G 9 76° 64% - - 63° 77.2° 61.8° - - -
6/26 12:20pm 244 4 G 10 75° 65% - - 63° 77.2° 61.8° - - -
6/26 12:10pm 252 4 G 7 76° 64% - - 63° 77.2° 61.8° - - -
6/26 12:00pm 260 3 G 9 75° 67% - - 63° 76.6° 61.8° - - -
6/26 11:50am 230 5 G 11 75° 66% - - 63° 76.2° 61.8° - - -
6/26 11:40am 222 6 G 11 75° 64% - - 62° 75.8° 61.8° - - -
6/26 11:30am 215 5 G 11 73° 67% - - 62° 74.9° 61.8° - - -
6/26 11:20am 209 6 G 10 73° 68% - - 62° 74.9° 61.8° - - -
6/26 11:10am 194 6 G 10 72° 70% - - 62° 74.9° 61.8° - - -
6/26 11:00am 191 8 G 13 71° 72% - - 62° 74.9° 61.8° - - -
6/26 10:50am 208 7 G 13 72° 71% - - 62° 74.9° 61.8° - - -
6/26 10:40am 221 6 G 12 72° 72% - - 63° 74.9° 61.8° - - -
6/26 10:30am 243 4 G 10 72° 74% - - 63° 74.9° 61.8° - - -
6/26 10:20am 247 4 G 8 72° 73% - - 63° 74.9° 61.8° - - -
6/26 10:10am 247 3 G 7 72° 74% - - 63° 74.9° 61.8° - - -
6/26 10:00am 247 3 G 9 72° 74% - - 63° 74.9° 61.8° - - -
6/26 9:50am 234 4 G 8 72° 73% - - 63° 74.9° 61.8° - - -
6/26 9:40am 232 4 G 8 72° 73% - - 63° 74.9° 61.8° - - -
6/26 9:30am 211 5 G 9 72° 73% - - 63° 74.9° 61.8° - - -
6/26 9:20am 209 7 G 10 72° 72% - - 63° 74.9° 61.8° - - -
6/26 9:10am 207 6 G 10 72° 71% - - 63° 74.9° 61.8° - - -
6/26 9:00am 196 7 G 10 73° 71% - - 63° 74.9° 61.8° - - -
6/26 8:50am 193 5 G 9 74° 69% - - 63° 74.9° 61.8° - - -
6/26 8:40am 194 3 G 6 73° 70% - - 63° 74.7° 61.8° - - -
6/26 8:30am 195 3 G 5 72° 71% - - 62° 73.3° 61.8° - - -
6/26 8:20am 177 2 G 4 72° 72% - - 63° 73.3° 61.8° - - -
6/26 8:10am 177 2 G 4 71° 75% - - 63° 71.7° 61.8° - - -
6/26 8:00am 187 2 G 4 70° 77% - - 62° 70.7° 61.8° - - -
6/26 7:50am 177 2 G 3 70° 78% - - 62° 70.2° 61.8° - - -
6/26 7:40am 185 1 G 2 69° 80% - - 62° 69.9° 61.8° - - -
6/26 7:30am 284 1 G 3 68° 81% - - 62° 69.1° 61.8° - - -
6/26 7:20am 289 2 G 3 67° 82% - - 62° 68.1° 61.8° - - -
6/26 7:10am 347 1 G 3 67° 83% - - 62° 67.9° 61.8° - - -
6/26 7:00am 5 2 G 3 65° 86% - - 61° 66.3° 61.8° - - -
6/26 6:50am 349 3 G 5 64° 87% - - 61° 66.2° 61.8° - - -
6/26 6:40am 352 3 G 5 64° 88% - - 60° 66.2° 61.8° - - -
6/26 6:30am 345 3 G 4 63° 88% - - 60° 66.2° 61.8° - - -
6/26 6:20am 345 2 G 3 64° 88% - - 60° 66.2° 61.8° - - -
6/26 6:10am 303 1 G 2 64° 88% - - 60° 66.2° 61.8° - - -
6/26 6:00am 28 0 G 1 64° 88% - - 60° 66.2° 61.8° - - -